createdAt,value
2018-11-28T00:00:44.416Z,7.08
2018-11-28T00:03:11.580Z,6.25
2018-11-28T00:05:38.753Z,6.05
2018-11-28T00:08:05.956Z,6.35
2018-11-28T00:10:33.131Z,6.17
2018-11-28T00:13:00.268Z,6.37
2018-11-28T00:15:27.432Z,7.05
2018-11-28T00:17:54.586Z,8.73
2018-11-28T00:20:22.591Z,7.37
2018-11-28T00:22:49.736Z,6.05
2018-11-28T00:25:17.377Z,5.95
2018-11-28T00:27:44.595Z,7.95
2018-11-28T00:30:13.667Z,6.47
2018-11-28T00:32:41.156Z,7.03
2018-11-28T00:35:10.620Z,6.33
2018-11-28T00:37:37.759Z,7.60
2018-11-28T00:40:05.999Z,7.65
2018-11-28T00:42:33.131Z,7.55
2018-11-28T00:45:00.244Z,7.28
2018-11-28T00:47:27.360Z,8.80
2018-11-28T00:49:54.522Z,5.15
2018-11-28T00:52:21.715Z,5.33
2018-11-28T00:54:48.880Z,6.75
2018-11-28T00:57:16.047Z,7.22
2018-11-28T00:59:43.220Z,7.10
2018-11-28T01:02:10.415Z,5.67
2018-11-28T01:04:37.576Z,4.15
2018-11-28T01:07:05.504Z,6.50
2018-11-28T01:09:32.663Z,8.40
2018-11-28T01:11:59.837Z,8.43
2018-11-28T01:14:27.028Z,7.00
2018-11-28T01:16:54.180Z,6.35
2018-11-28T01:19:21.324Z,8.05
2018-11-28T01:21:48.471Z,6.87
2018-11-28T01:24:15.628Z,6.80
2018-11-28T01:26:42.800Z,6.25
2018-11-28T01:29:09.952Z,5.35
2018-11-28T01:31:37.116Z,6.70
2018-11-28T01:34:04.753Z,7.78
2018-11-28T01:36:31.869Z,7.10
2018-11-28T01:38:59.007Z,6.75
2018-11-28T01:41:26.131Z,6.05
2018-11-28T01:43:53.238Z,6.00
2018-11-28T01:46:20.367Z,6.03
2018-11-28T01:48:47.523Z,6.22
2018-11-28T01:51:14.636Z,6.37
2018-11-28T01:53:41.760Z,5.97
2018-11-28T01:56:08.887Z,7.35
2018-11-28T01:58:36.008Z,5.42
2018-11-28T02:01:03.284Z,6.60
2018-11-28T02:03:30.425Z,8.35
2018-11-28T02:05:57.588Z,7.58
2018-11-28T02:08:24.700Z,7.17
2018-11-28T02:10:51.838Z,7.00
2018-11-28T02:13:18.947Z,6.30
2018-11-28T02:15:46.088Z,6.05
2018-11-28T02:18:13.269Z,6.67
2018-11-28T02:20:40.364Z,6.80
2018-11-28T02:23:07.492Z,8.55
2018-11-28T02:25:34.640Z,7.97
2018-11-28T02:28:01.772Z,7.17
2018-11-28T02:30:28.933Z,7.30
2018-11-28T02:32:56.146Z,7.10
2018-11-28T02:35:23.281Z,6.47
2018-11-28T02:37:50.520Z,6.70
2018-11-28T02:40:18.330Z,6.83
2018-11-28T02:42:46.111Z,6.67
2018-11-28T02:45:15.102Z,8.75
2018-11-28T02:47:42.253Z,6.33
2018-11-28T02:50:09.443Z,7.85
2018-11-28T02:52:36.591Z,7.53
2018-11-28T02:55:04.115Z,7.45
2018-11-28T02:57:31.279Z,5.78
2018-11-28T02:59:58.427Z,7.25
2018-11-28T03:02:25.609Z,7.97
2018-11-28T03:04:52.760Z,6.60
2018-11-28T03:07:19.928Z,6.70
2018-11-28T03:09:47.072Z,5.20
2018-11-28T03:12:14.187Z,7.58
2018-11-28T03:14:41.508Z,4.70
2018-11-28T03:17:13.263Z,4.25
2018-11-28T03:19:40.444Z,7.53
2018-11-28T03:22:07.627Z,6.60
2018-11-28T03:24:34.777Z,5.90
2018-11-28T03:27:01.909Z,7.33
2018-11-28T03:29:29.038Z,6.17
2018-11-28T03:31:56.187Z,7.20
2018-11-28T03:34:23.372Z,7.00
2018-11-28T03:36:50.567Z,8.10
2018-11-28T03:39:17.777Z,7.42
2018-11-28T03:41:44.987Z,7.97
2018-11-28T03:44:12.136Z,7.75
2018-11-28T03:46:39.328Z,6.30
2018-11-28T03:49:06.552Z,8.30
2018-11-28T03:51:33.712Z,6.47
2018-11-28T03:54:00.880Z,7.37
2018-11-28T03:56:28.072Z,5.25
2018-11-28T03:58:55.279Z,7.95
2018-11-28T04:01:22.448Z,7.97
2018-11-28T04:03:49.634Z,8.85
2018-11-28T04:06:16.832Z,7.10
2018-11-28T04:08:44.024Z,6.65
2018-11-28T04:11:11.234Z,7.97
2018-11-28T04:13:38.416Z,8.10
2018-11-28T04:16:06.000Z,8.18
2018-11-28T04:18:33.195Z,8.33
2018-11-28T04:21:00.396Z,8.05
2018-11-28T04:23:27.555Z,8.90
2018-11-28T04:25:54.727Z,7.65
2018-11-28T04:28:21.898Z,8.30
2018-11-28T04:30:49.060Z,7.35
2018-11-28T04:33:16.199Z,7.87
2018-11-28T04:35:43.336Z,7.97
2018-11-28T04:38:10.476Z,9.13
2018-11-28T04:40:37.649Z,7.75
2018-11-28T04:43:04.824Z,7.95
2018-11-28T04:45:31.989Z,6.67
2018-11-28T04:47:59.119Z,7.37
2018-11-28T04:50:26.280Z,8.35
2018-11-28T04:52:53.436Z,8.78
2018-11-28T04:55:20.612Z,6.37
2018-11-28T04:57:47.903Z,8.25
2018-11-28T05:00:17.139Z,8.00
2018-11-28T05:02:44.286Z,8.30
2018-11-28T05:05:11.455Z,7.87
2018-11-28T05:07:39.316Z,6.83
2018-11-28T05:10:09.484Z,7.00
2018-11-28T05:12:36.669Z,6.33
2018-11-28T05:15:04.937Z,6.70
2018-11-28T05:17:32.151Z,8.55
2018-11-28T05:19:59.417Z,6.37
2018-11-28T05:22:26.553Z,6.78
2018-11-28T05:24:53.864Z,7.22
2018-11-28T05:27:21.028Z,7.95
2018-11-28T05:29:48.168Z,6.60
2018-11-28T05:32:15.310Z,7.43
2018-11-28T05:34:42.456Z,7.42
2018-11-28T05:37:09.620Z,8.18
2018-11-28T05:39:36.787Z,5.35
2018-11-28T05:42:04.192Z,5.37
2018-11-28T05:44:31.345Z,7.55
2018-11-28T05:46:58.491Z,7.15
2018-11-28T05:49:25.655Z,7.08
2018-11-28T05:51:52.797Z,6.92
2018-11-28T05:54:20.331Z,6.35
2018-11-28T05:56:47.140Z,6.85
2018-11-28T05:59:14.300Z,8.98
2018-11-28T06:01:41.424Z,8.33
2018-11-28T06:04:08.586Z,7.83
2018-11-28T06:06:35.758Z,5.53
2018-11-28T06:09:04.205Z,7.97
2018-11-28T06:11:31.329Z,8.83
2018-11-28T06:13:58.468Z,9.55
2018-11-28T06:16:25.596Z,6.37
2018-11-28T06:18:52.787Z,6.33
2018-11-28T06:21:19.940Z,7.58
2018-11-28T06:23:47.122Z,6.12
2018-11-28T06:26:14.300Z,6.53
2018-11-28T06:28:41.424Z,7.60
2018-11-28T06:31:08.576Z,6.20
2018-11-28T06:33:35.716Z,8.40
2018-11-28T06:36:02.888Z,8.15
2018-11-28T06:38:30.001Z,7.35
2018-11-28T06:40:57.163Z,7.85
2018-11-28T06:43:24.285Z,8.65
2018-11-28T06:45:51.421Z,7.00
2018-11-28T06:48:18.538Z,6.50
2018-11-28T06:50:45.685Z,7.00
2018-11-28T06:53:12.852Z,4.85
2018-11-28T06:55:40.028Z,7.53
2018-11-28T06:58:07.179Z,7.30
2018-11-28T07:00:34.407Z,4.30
2018-11-28T07:03:01.531Z,7.30
2018-11-28T07:05:28.724Z,7.25
2018-11-28T07:07:55.856Z,7.50
2018-11-28T07:10:23.008Z,8.45
2018-11-28T07:12:50.201Z,5.30
2018-11-28T07:15:22.383Z,5.35
2018-11-28T07:17:49.513Z,9.38
2018-11-28T07:20:16.791Z,9.45
2018-11-28T07:22:43.963Z,7.30
2018-11-28T07:25:15.995Z,11.45
2018-11-28T07:27:45.429Z,9.00
2018-11-28T07:30:14.568Z,9.53
2018-11-28T07:32:41.748Z,7.10
2018-11-28T07:35:09.568Z,6.07
2018-11-28T07:37:36.883Z,9.00
2018-11-28T07:40:11.941Z,8.60
2018-11-28T07:42:39.354Z,9.50
2018-11-28T07:45:09.167Z,8.15
2018-11-28T07:47:36.324Z,7.05
2018-11-28T07:50:03.775Z,8.47
2018-11-28T07:52:30.888Z,7.67
2018-11-28T07:54:58.013Z,7.45
2018-11-28T07:57:25.181Z,7.90
2018-11-28T07:59:52.315Z,7.47
2018-11-28T08:02:19.447Z,8.65
2018-11-28T08:04:46.639Z,7.47
2018-11-28T08:07:13.788Z,6.28
2018-11-28T08:09:40.917Z,7.80
2018-11-28T08:12:08.087Z,8.75
2018-11-28T08:14:35.215Z,7.15
2018-11-28T08:17:02.366Z,7.20
2018-11-28T08:19:29.507Z,7.43
2018-11-28T08:21:56.648Z,8.87
2018-11-28T08:24:23.776Z,8.43
2018-11-28T08:26:50.903Z,6.53
2018-11-28T08:29:18.026Z,8.63
2018-11-28T08:31:45.204Z,9.10
2018-11-28T08:34:12.384Z,6.90
2018-11-28T08:36:39.548Z,8.50
2018-11-28T08:39:07.093Z,4.43
2018-11-28T08:41:34.252Z,7.73
2018-11-28T08:44:01.415Z,6.87
2018-11-28T08:46:28.572Z,7.73
2018-11-28T08:48:56.727Z,7.27
2018-11-28T08:51:23.948Z,8.00
2018-11-28T08:53:51.131Z,6.90
2018-11-28T08:56:18.286Z,7.67
2018-11-28T08:58:45.440Z,6.33
2018-11-28T09:01:12.592Z,8.40
2018-11-28T09:03:39.738Z,7.67
2018-11-28T09:06:06.931Z,7.00
2018-11-28T09:08:34.108Z,7.47
2018-11-28T09:11:01.263Z,8.43
2018-11-28T09:13:28.374Z,7.20
2018-11-28T09:15:55.537Z,7.73
2018-11-28T09:18:22.651Z,7.07
2018-11-28T09:20:49.779Z,8.47
2018-11-28T09:23:16.959Z,5.13
2018-11-28T09:25:44.067Z,9.43
2018-11-28T09:28:11.216Z,8.10
2018-11-28T09:30:38.364Z,7.93
2018-11-28T09:33:05.545Z,5.73
2018-11-28T09:35:32.712Z,7.03
2018-11-28T09:37:59.913Z,8.30
2018-11-28T09:40:27.036Z,8.10
2018-11-28T09:42:55.462Z,7.57
2018-11-28T09:45:22.594Z,7.20
2018-11-28T09:47:49.758Z,7.57
2018-11-28T09:50:24.585Z,7.43
2018-11-28T09:52:51.785Z,6.23
2018-11-28T09:55:21.058Z,9.07
2018-11-28T09:57:48.251Z,7.40
2018-11-28T10:00:24.860Z,9.20
2018-11-28T10:02:53.068Z,9.10
2018-11-28T10:05:21.440Z,7.53
2018-11-28T10:07:48.660Z,7.77
2018-11-28T10:10:15.843Z,7.67
2018-11-28T10:12:43.019Z,7.83
2018-11-28T10:15:13.748Z,7.50
2018-11-28T10:17:41.017Z,8.80
2018-11-28T10:20:09.537Z,7.93
2018-11-28T10:22:36.684Z,7.17
2018-11-28T10:25:04.462Z,8.30
2018-11-28T10:27:31.624Z,19.47
2018-11-28T10:29:58.785Z,10.00
2018-11-28T10:32:25.915Z,8.70
2018-11-28T10:34:53.067Z,6.93
2018-11-28T10:37:20.244Z,8.57
2018-11-28T10:39:47.411Z,7.13
2018-11-28T10:42:14.602Z,5.90
2018-11-28T10:44:41.808Z,11.60
2018-11-28T10:47:08.986Z,8.40
2018-11-28T10:49:36.175Z,8.13
2018-11-28T10:52:03.353Z,11.90
2018-11-28T10:54:30.547Z,5.97
2018-11-28T10:56:57.732Z,5.67
2018-11-28T10:59:24.884Z,7.13
2018-11-28T11:01:56.671Z,6.70
2018-11-28T11:04:24.785Z,6.67
2018-11-28T11:08:01.016Z,6.97
2018-11-28T11:10:34.008Z,7.27
2018-11-28T11:13:07.251Z,4.00
2018-11-28T11:15:34.432Z,5.80
2018-11-28T11:18:02.174Z,9.23
2018-11-28T11:20:28.820Z,6.90
2018-11-28T11:22:56.060Z,6.07
2018-11-28T11:25:23.249Z,7.10
2018-11-28T11:27:50.455Z,6.57
2018-11-28T11:30:17.636Z,5.97
2018-11-28T11:32:44.844Z,6.47
2018-11-28T11:35:12.017Z,7.20
2018-11-28T11:37:39.196Z,6.80
2018-11-28T11:40:09.140Z,7.67
2018-11-28T11:42:36.343Z,7.37
2018-11-28T11:45:04.055Z,7.53
2018-11-28T11:47:31.205Z,5.63
2018-11-28T11:49:58.409Z,7.10
2018-11-28T11:52:25.590Z,5.93
2018-11-28T11:54:52.785Z,6.43
2018-11-28T11:57:19.977Z,6.07
2018-11-28T11:59:47.156Z,6.67
2018-11-28T12:02:14.389Z,7.47
2018-11-28T12:04:41.592Z,6.67
2018-11-28T12:07:08.780Z,7.00
2018-11-28T12:09:35.961Z,7.40
2018-11-28T12:12:03.121Z,6.80
2018-11-28T12:14:30.299Z,6.40
2018-11-28T12:16:57.484Z,6.97
2018-11-28T12:19:24.675Z,6.43
2018-11-28T12:21:51.865Z,5.87
2018-11-28T12:24:19.015Z,6.37
2018-11-28T12:26:46.183Z,7.40
2018-11-28T12:29:13.342Z,6.00
2018-11-28T12:31:40.504Z,7.67
2018-11-28T12:34:07.684Z,6.50
2018-11-28T12:36:34.859Z,6.10
2018-11-28T12:39:02.052Z,4.17
2018-11-28T12:41:29.252Z,5.90
2018-11-28T12:43:56.405Z,5.77
2018-11-28T12:46:23.609Z,6.40
2018-11-28T12:48:50.830Z,5.87
2018-11-28T12:51:17.940Z,7.40
2018-11-28T12:53:45.098Z,5.97
2018-11-28T12:56:12.255Z,6.00
2018-11-28T12:58:39.407Z,5.60
2018-11-28T13:01:06.573Z,5.50
2018-11-28T13:03:33.751Z,5.27
2018-11-28T13:06:00.930Z,5.47
2018-11-28T13:08:28.136Z,5.73
2018-11-28T13:10:55.287Z,6.73
2018-11-28T13:13:22.489Z,6.87
2018-11-28T13:15:49.621Z,5.83
2018-11-28T13:18:16.777Z,5.67
2018-11-28T13:20:43.927Z,5.77
2018-11-28T13:23:12.367Z,6.57
2018-11-28T13:25:39.547Z,6.67
2018-11-28T13:28:06.836Z,5.60
2018-11-28T13:30:34.020Z,5.17
2018-11-28T13:33:01.151Z,5.87
2018-11-28T13:35:28.335Z,6.70
2018-11-28T13:38:00.522Z,6.87
2018-11-28T13:40:27.713Z,6.53
2018-11-28T13:42:54.859Z,6.30
2018-11-28T13:45:27.292Z,6.97
2018-11-28T13:47:54.769Z,6.20
2018-11-28T13:50:21.953Z,6.50
2018-11-28T13:52:49.840Z,5.83
2018-11-28T13:55:39.700Z,6.57
2018-11-28T13:58:01.769Z,6.10
2018-11-28T14:00:28.885Z,7.07
2018-11-28T14:02:56.000Z,6.23
2018-11-28T14:05:23.183Z,6.03
2018-11-28T14:07:50.368Z,6.80
2018-11-28T14:10:17.507Z,6.90
2018-11-28T14:12:44.644Z,5.97
2018-11-28T14:15:12.536Z,6.00
2018-11-28T14:17:39.728Z,6.10
2018-11-28T14:20:09.376Z,6.70
2018-11-28T14:22:37.430Z,7.40
2018-11-28T14:25:05.764Z,6.17
2018-11-28T14:27:32.903Z,6.23
2018-11-28T14:30:00.087Z,7.30
2018-11-28T14:32:27.268Z,5.43
2018-11-28T14:34:54.383Z,7.20
2018-11-28T14:37:21.500Z,6.90
2018-11-28T14:39:48.624Z,6.40
2018-11-28T14:42:15.755Z,5.17
2018-11-28T14:44:42.973Z,5.70
2018-11-28T14:47:10.102Z,6.83
2018-11-28T14:49:37.249Z,6.87
2018-11-28T14:52:04.491Z,5.80
2018-11-28T14:54:31.629Z,7.40
2018-11-28T14:56:59.751Z,8.13
2018-11-28T14:59:26.868Z,7.70
2018-11-28T15:01:54.003Z,7.47
2018-11-28T15:04:21.120Z,7.00
2018-11-28T15:06:51.974Z,7.97
2018-11-28T15:09:24.928Z,6.73
2018-11-28T15:11:52.046Z,7.80
2018-11-28T15:14:19.168Z,7.17
2018-11-28T15:16:46.288Z,7.07
2018-11-28T15:19:13.409Z,6.00
2018-11-28T15:21:40.535Z,8.40
2018-11-28T15:24:07.673Z,8.80
2018-11-28T15:26:34.859Z,7.83
2018-11-28T15:29:02.535Z,7.27
2018-11-28T15:31:29.760Z,7.60
2018-11-28T15:33:56.880Z,8.93
2018-11-28T15:36:23.995Z,7.23
2018-11-28T15:38:51.111Z,8.63
2018-11-28T15:41:18.260Z,9.23
2018-11-28T15:43:45.384Z,6.80
2018-11-28T15:46:14.850Z,7.23
2018-11-28T15:48:39.601Z,8.10
2018-11-28T15:51:06.759Z,6.80
2018-11-28T15:53:33.900Z,9.47
2018-11-28T15:56:01.196Z,9.20
2018-11-28T15:58:28.304Z,9.93
2018-11-28T16:00:55.475Z,7.20
2018-11-28T16:03:22.619Z,8.00
2018-11-28T16:05:49.753Z,7.87
2018-11-28T16:08:16.913Z,8.30
2018-11-28T16:10:44.072Z,8.27
2018-11-28T16:13:13.597Z,8.50
2018-11-28T16:15:46.583Z,6.40
2018-11-28T16:18:13.720Z,8.33
2018-11-28T16:20:40.855Z,9.70
2018-11-28T16:23:07.986Z,5.57
2018-11-28T16:25:35.114Z,9.07
2018-11-28T16:28:02.593Z,7.77
2018-11-28T16:30:29.756Z,6.53
2018-11-28T16:32:56.920Z,6.73
2018-11-28T16:35:24.050Z,9.13
2018-11-28T16:37:51.188Z,7.00
2018-11-28T16:40:18.319Z,8.37
2018-11-28T16:42:45.427Z,8.60
2018-11-28T16:45:13.760Z,8.57
2018-11-28T16:47:40.932Z,6.93
2018-11-28T16:50:08.749Z,9.03
2018-11-28T16:52:35.897Z,8.27
2018-11-28T16:55:03.208Z,7.80
2018-11-28T16:57:30.336Z,9.40
2018-11-28T16:59:57.452Z,8.27
2018-11-28T17:02:24.580Z,9.00
2018-11-28T17:04:51.696Z,7.10
2018-11-28T17:07:18.840Z,7.33
2018-11-28T17:09:45.996Z,8.00
2018-11-28T17:12:13.124Z,6.03
2018-11-28T17:14:40.308Z,5.83
2018-11-28T17:17:07.416Z,8.90
2018-11-28T17:19:34.553Z,6.27
2018-11-28T17:22:01.692Z,6.87
2018-11-28T17:24:28.828Z,6.70
2018-11-28T17:26:55.991Z,8.40
2018-11-28T17:29:23.124Z,7.57
2018-11-28T17:31:50.251Z,7.53
2018-11-28T17:34:17.383Z,7.47
2018-11-28T17:36:44.517Z,7.17
2018-11-28T17:39:11.963Z,8.50
2018-11-28T17:41:39.318Z,8.57
2018-11-28T17:44:06.468Z,7.50
2018-11-28T17:46:33.612Z,8.07
2018-11-28T17:49:00.836Z,8.40
2018-11-28T17:51:27.969Z,11.40
2018-11-28T17:53:55.120Z,7.43
2018-11-28T17:56:22.268Z,6.87
2018-11-28T17:58:49.408Z,5.73
2018-11-28T18:01:16.589Z,7.47
2018-11-28T18:03:43.760Z,6.63
2018-11-28T18:06:10.933Z,7.53
2018-11-28T18:08:38.084Z,6.13
2018-11-28T18:11:12.528Z,5.60
2018-11-28T18:13:40.155Z,6.57
2018-11-28T18:16:07.318Z,7.17
2018-11-28T18:18:34.483Z,3.97
2018-11-28T18:21:01.691Z,7.25
2018-11-28T18:23:28.918Z,7.20
2018-11-28T18:25:56.112Z,7.97
2018-11-28T18:28:23.280Z,6.03
2018-11-28T18:30:50.443Z,5.20
2018-11-28T18:33:17.631Z,6.57
2018-11-28T18:35:44.921Z,6.37
2018-11-28T18:38:12.108Z,6.83
2018-11-28T18:40:39.334Z,6.50
2018-11-28T18:43:08.205Z,5.97
2018-11-28T18:45:38.848Z,7.47
2018-11-28T18:48:06.117Z,6.13
2018-11-28T18:50:33.352Z,6.63
2018-11-28T18:53:00.540Z,6.37
2018-11-28T18:55:27.725Z,6.07
2018-11-28T18:57:55.556Z,5.83
2018-11-28T19:00:23.712Z,6.23
2018-11-28T19:02:51.264Z,5.30
2018-11-28T19:05:18.468Z,7.60
2018-11-28T19:07:45.664Z,7.03
2018-11-28T19:10:14.251Z,6.67
2018-11-28T19:12:41.439Z,6.27
2018-11-28T19:15:10.239Z,6.13
2018-11-28T19:17:37.433Z,5.67
2018-11-28T19:20:06.563Z,6.47
2018-11-28T19:22:33.711Z,5.57
2018-11-28T19:25:00.921Z,5.77
2018-11-28T19:27:28.056Z,5.17
2018-11-28T19:29:55.213Z,5.93
2018-11-28T19:32:22.356Z,5.23
2018-11-28T19:34:49.484Z,5.63
2018-11-28T19:37:16.617Z,5.03
2018-11-28T19:39:43.764Z,6.03
2018-11-28T19:42:10.907Z,3.90
2018-11-28T19:44:38.019Z,5.10
2018-11-28T19:47:05.191Z,5.27
2018-11-28T19:49:32.343Z,5.13
2018-11-28T19:51:59.476Z,4.67
2018-11-28T19:54:26.687Z,4.87
2018-11-28T19:56:53.855Z,5.23
2018-11-28T19:59:21.004Z,5.23
2018-11-28T20:01:48.175Z,4.80
2018-11-28T20:04:15.362Z,5.90
2018-11-28T20:06:42.570Z,4.70
2018-11-28T20:09:15.149Z,5.63
2018-11-28T20:11:42.308Z,4.63
2018-11-28T20:14:09.740Z,4.80
2018-11-28T20:16:36.918Z,3.73
2018-11-28T20:19:04.124Z,4.43
2018-11-28T20:21:31.313Z,4.30
2018-11-28T20:23:58.468Z,4.87
2018-11-28T20:26:25.644Z,5.03
2018-11-28T20:28:52.836Z,4.27
2018-11-28T20:31:20.006Z,4.57
2018-11-28T20:33:47.244Z,3.77
2018-11-28T20:36:14.436Z,3.83
2018-11-28T20:38:41.565Z,3.50
2018-11-28T20:41:08.780Z,3.83
2018-11-28T20:43:36.055Z,3.20
2018-11-28T20:46:03.228Z,3.93
2018-11-28T20:48:30.390Z,4.77
2018-11-28T20:50:57.595Z,4.30
2018-11-28T20:53:24.768Z,3.87
2018-11-28T20:55:52.037Z,3.87
2018-11-28T20:58:19.307Z,3.87
2018-11-28T21:00:46.551Z,3.90
2018-11-28T21:03:13.737Z,3.17
2018-11-28T21:05:41.006Z,3.73
2018-11-28T21:08:08.864Z,3.97
2018-11-28T21:10:37.081Z,3.87
2018-11-28T21:13:05.611Z,3.47
2018-11-28T21:15:32.825Z,3.50
2018-11-28T21:18:00.012Z,3.37
2018-11-28T21:20:27.159Z,3.87
2018-11-28T21:22:58.465Z,3.27
2018-11-28T21:25:25.672Z,3.87
2018-11-28T21:27:52.823Z,3.40
2018-11-28T21:30:20.190Z,4.27
2018-11-28T21:32:48.196Z,3.47
2018-11-28T21:35:18.229Z,3.73
2018-11-28T21:37:45.415Z,3.30
2018-11-28T21:40:13.253Z,3.37
2018-11-28T21:42:40.451Z,3.30
2018-11-28T21:45:09.953Z,3.17
2018-11-28T21:47:37.183Z,3.63
2018-11-28T21:50:07.508Z,3.87
2018-11-28T21:52:41.488Z,2.60
2018-11-28T21:55:10.808Z,3.27
2018-11-28T21:57:37.973Z,3.43
2018-11-28T22:00:08.928Z,2.93
2018-11-28T22:02:36.102Z,3.47
2018-11-28T22:05:03.459Z,2.23
2018-11-28T22:07:30.612Z,3.40
2018-11-28T22:09:57.844Z,2.33
2018-11-28T22:12:25.027Z,2.80
2018-11-28T22:14:52.175Z,2.97
2018-11-28T22:17:19.326Z,3.53
2018-11-28T22:19:46.560Z,2.97
2018-11-28T22:22:13.712Z,3.60
2018-11-28T22:24:40.860Z,3.47
2018-11-28T22:27:08.052Z,2.90
2018-11-28T22:29:35.189Z,3.00
2018-11-28T22:32:02.459Z,2.93
2018-11-28T22:34:29.625Z,3.03
2018-11-28T22:36:56.785Z,2.60
2018-11-28T22:39:23.955Z,2.80
2018-11-28T22:41:51.122Z,3.13
2018-11-28T22:44:18.283Z,3.03
2018-11-28T22:46:45.432Z,3.37
2018-11-28T22:49:12.581Z,3.00
2018-11-28T22:51:39.728Z,2.23
2018-11-28T22:54:06.856Z,2.87
2018-11-28T22:56:33.984Z,2.33
2018-11-28T22:59:01.143Z,2.83
2018-11-28T23:01:38.504Z,2.60
2018-11-28T23:04:05.694Z,3.13
2018-11-28T23:06:32.820Z,2.97
2018-11-28T23:08:59.956Z,3.03
2018-11-28T23:11:27.119Z,3.30
2018-11-28T23:13:55.041Z,3.03
2018-11-28T23:16:22.224Z,3.37
2018-11-28T23:18:49.404Z,3.30
2018-11-28T23:21:16.512Z,2.23
2018-11-28T23:23:43.659Z,2.90
2018-11-28T23:26:10.802Z,3.10
2018-11-28T23:28:37.915Z,2.77
2018-11-28T23:31:05.126Z,2.63
2018-11-28T23:33:32.303Z,2.83
2018-11-28T23:35:59.423Z,2.83
2018-11-28T23:38:26.543Z,2.57
2018-11-28T23:40:54.004Z,3.30
2018-11-28T23:43:21.130Z,2.80
2018-11-28T23:45:48.231Z,3.10
2018-11-28T23:48:15.356Z,2.77
2018-11-28T23:50:42.471Z,2.37
2018-11-28T23:53:09.709Z,2.73
2018-11-28T23:55:36.873Z,3.47
2018-11-28T23:58:04.056Z,3.53
